Wetterstation Vordersexau
Wetterdaten: Woche 26.06.17 - 02.07.17 (KW26)
Datum Zeit Temp. A. Feuchte A. Luftdruck Regen Wind Richtung Taupunkt Windchill Windben
26.06.2017 00:00 17,9 C 73 % 1013,5 hPa 0,0 l/m 0,0 km/h N 13,0 C 17,9 C 0,0 km/h
26.06.2017 01:00 17,6 C 75 % 1013,3 hPa 0,0 l/m 0,0 km/h N 13,1 C 17,6 C 0,0 km/h
26.06.2017 02:00 16,6 C 76 % 1013,2 hPa 0,0 l/m 0,0 km/h N 12,3 C 16,6 C 0,0 km/h
26.06.2017 03:00 14,8 C 80 % 1012,9 hPa 0,0 l/m 0,0 km/h N 11,4 C 14,8 C 0,0 km/h
26.06.2017 04:00 13,9 C 82 % 1012,5 hPa 0,0 l/m 0,0 km/h NO 10,9 C 13,9 C 0,0 km/h
26.06.2017 05:00 13,5 C 83 % 1012,3 hPa 0,0 l/m 0,0 km/h SO 10,7 C 13,5 C 0,0 km/h
26.06.2017 06:00 14,9 C 83 % 1012,2 hPa 0,0 l/m 0,0 km/h SO 12,0 C 14,9 C 0,0 km/h
26.06.2017 07:00 19,8 C 80 % 1012,1 hPa 0,0 l/m 0,0 km/h O 16,2 C 19,8 C 0,0 km/h
26.06.2017 08:00 29,8 C 48 % 1011,5 hPa 0,0 l/m 0,0 km/h NW 17,6 C 29,8 C 0,0 km/h
26.06.2017 09:00 30,3 C 42 % 1011,3 hPa 0,0 l/m 0,0 km/h W-NW 15,9 C 30,3 C 0,0 km/h
26.06.2017 10:00 29,5 C 44 % 1011,2 hPa 0,0 l/m 0,6 km/h N 15,9 C 29,5 C 0,4 km/h
26.06.2017 11:00 29,9 C 42 % 1010,5 hPa 0,0 l/m 0,0 km/h O-NO 15,6 C 29,9 C 0,0 km/h
26.06.2017 12:00 30,2 C 38 % 1010,0 hPa 0,0 l/m 0,0 km/h W-NW 14,3 C 30,2 C 0,0 km/h
26.06.2017 13:00 32,1 C 37 % 1009,1 hPa 0,0 l/m 11,7 km/h NW 15,5 C 32,0 C 6,5 km/h
26.06.2017 14:00 33,5 C 36 % 1008,4 hPa 0,0 l/m 2,6 km/h N-NO 16,3 C 33,5 C 1,4 km/h
26.06.2017 15:00 34,1 C 34 % 1007,9 hPa 0,0 l/m 9,7 km/h N-NW 16,0 C 34,1 C 5,4 km/h
26.06.2017 16:00 35,3 C 30 % 1007,5 hPa 0,0 l/m 0,0 km/h N-NW 15,0 C 35,3 C 0,0 km/h
26.06.2017 17:00 36,4 C 30 % 1006,9 hPa 0,0 l/m 0,0 km/h N 16,0 C 36,4 C 0,0 km/h
26.06.2017 18:00 32,1 C 33 % 1007,0 hPa 0,0 l/m 0,0 km/h N 13,8 C 32,1 C 0,0 km/h
26.06.2017 19:00 29,2 C 40 % 1006,8 hPa 0,0 l/m 5,8 km/h NW 14,2 C 29,2 C 3,2 km/h
26.06.2017 20:00 26,4 C 49 % 1007,1 hPa 0,0 l/m 0,0 km/h NW 14,8 C 26,4 C 0,0 km/h
26.06.2017 21:00 24,1 C 58 % 1007,7 hPa 0,0 l/m 0,0 km/h W 15,3 C 24,1 C 0,0 km/h
26.06.2017 22:00 22,9 C 65 % 1009,0 hPa 0,0 l/m 0,0 km/h SO 16,0 C 22,9 C 0,0 km/h
26.06.2017 23:00 21,1 C 70 % 1009,2 hPa 0,0 l/m 0,0 km/h SO 15,4 C 21,1 C 0,0 km/h
27.06.2017 00:00 20,4 C 74 % 1009,1 hPa 0,0 l/m 0,0 km/h SO 15,6 C 20,4 C 0,0 km/h
27.06.2017 01:00 18,7 C 81 % 1009,2 hPa 1,0 l/m 0,0 km/h N-NO 15,4 C 18,7 C 0,0 km/h
27.06.2017 02:00 18,3 C 82 % 1008,5 hPa 1,0 l/m 0,0 km/h SO 15,2 C 18,3 C 0,0 km/h
27.06.2017 03:00 18,0 C 81 % 1008,2 hPa 0,0 l/m 0,0 km/h SO 14,7 C 18,0 C 0,0 km/h
27.06.2017 04:00 17,6 C 82 % 1007,4 hPa 0,0 l/m 0,0 km/h SO 14,5 C 17,6 C 0,0 km/h
27.06.2017 05:00 17,1 C 82 % 1007,2 hPa 0,0 l/m 0,0 km/h SO 14,0 C 17,1 C 0,0 km/h
27.06.2017 06:00 17,9 C 80 % 1007,2 hPa 0,0 l/m 0,0 km/h SO 14,4 C 17,9 C 0,0 km/h
27.06.2017 07:00 19,6 C 82 % 1007,0 hPa 0,0 l/m 0,0 km/h SO 16,4 C 19,6 C 0,0 km/h
27.06.2017 08:00 21,0 C 82 % 1007,0 hPa 0,0 l/m 0,0 km/h S-SO 17,8 C 21,0 C 0,0 km/h
27.06.2017 09:00 25,9 C 73 % 1006,7 hPa 0,0 l/m 0,0 km/h SW 20,7 C 25,9 C 0,0 km/h
27.06.2017 10:00 27,0 C 63 % 1006,6 hPa 0,0 l/m 0,0 km/h W-SW 19,3 C 27,0 C 0,0 km/h
27.06.2017 11:00 28,8 C 55 % 1006,1 hPa 0,0 l/m 2,6 km/h W 18,8 C 28,8 C 1,4 km/h
27.06.2017 12:00 29,8 C 51 % 1005,6 hPa 0,0 l/m 0,0 km/h SW 18,5 C 29,8 C 0,0 km/h
27.06.2017 13:00 30,9 C 45 % 1004,9 hPa 0,0 l/m 0,0 km/h W 17,6 C 30,9 C 0,0 km/h
27.06.2017 14:00 32,6 C 41 % 1004,2 hPa 0,0 l/m 2,6 km/h S-SW 17,6 C 32,6 C 1,4 km/h
27.06.2017 15:00 32,5 C 40 % 1003,5 hPa 0,0 l/m 0,0 km/h S-SW 17,1 C 32,5 C 0,0 km/h
27.06.2017 16:00 28,8 C 46 % 1003,0 hPa 0,0 l/m 3,9 km/h W 16,0 C 28,8 C 2,2 km/h
27.06.2017 17:00 26,1 C 55 % 1002,8 hPa 0,0 l/m 1,3 km/h W 16,3 C 26,1 C 0,7 km/h
27.06.2017 18:00 25,4 C 60 % 1002,0 hPa 0,0 l/m 0,0 km/h S-SW 17,1 C 25,4 C 0,0 km/h
27.06.2017 19:00 24,9 C 64 % 1001,4 hPa 0,0 l/m 0,0 km/h S-SW 17,6 C 24,9 C 0,0 km/h
27.06.2017 20:00 22,9 C 69 % 1000,7 hPa 0,0 l/m 0,0 km/h S-SW 16,9 C 22,9 C 0,0 km/h
27.06.2017 21:00 20,5 C 74 % 1001,0 hPa 0,0 l/m 0,0 km/h S-SO 15,7 C 20,5 C 0,0 km/h
27.06.2017 22:00 20,0 C 76 % 1000,3 hPa 0,0 l/m 0,0 km/h SO 15,6 C 20,0 C 0,0 km/h
27.06.2017 23:00 18,4 C 80 % 999,5 hPa 0,0 l/m 0,0 km/h SO 14,9 C 18,4 C 0,0 km/h
28.06.2017 00:00 18,6 C 81 % 999,5 hPa 0,0 l/m 0,0 km/h SO 15,3 C 18,6 C 0,0 km/h
28.06.2017 01:00 17,3 C 82 % 1001,3 hPa 0,5 l/m 0,0 km/h N-NO 14,2 C 17,3 C 0,0 km/h
28.06.2017 02:00 16,9 C 82 % 1000,6 hPa 1,6 l/m 0,0 km/h O 13,8 C 16,9 C 0,0 km/h
28.06.2017 03:00 17,5 C 80 % 1000,3 hPa 0,5 l/m 0,0 km/h S 14,0 C 17,5 C 0,0 km/h
28.06.2017 04:00 17,2 C 79 % 1000,3 hPa 1,0 l/m 0,0 km/h S-SO 13,5 C 17,2 C 0,0 km/h
28.06.2017 05:00 17,3 C 79 % 999,6 hPa 0,0 l/m 0,0 km/h S 13,6 C 17,3 C 0,0 km/h
28.06.2017 06:00 17,4 C 79 % 1000,0 hPa 0,0 l/m 0,0 km/h S-SO 13,7 C 17,4 C 0,0 km/h
28.06.2017 07:00 18,3 C 83 % 1000,0 hPa 0,0 l/m 3,2 km/h S-SW 15,4 C 18,3 C 1,8 km/h
28.06.2017 08:00 19,1 C 80 % 1000,3 hPa 0,0 l/m 2,6 km/h S-SW 15,6 C 19,1 C 1,4 km/h
28.06.2017 09:00 19,9 C 75 % 1000,2 hPa 0,0 l/m 9,7 km/h W 15,3 C 18,6 C 5,4 km/h
28.06.2017 10:00 21,9 C 66 % 999,9 hPa 0,0 l/m 20,7 km/h S-SW 15,3 C 18,6 C 11,5 km/h
28.06.2017 11:00 23,9 C 62 % 1000,0 hPa 0,0 l/m 7,1 km/h S-SW 16,2 C 23,7 C 4,0 km/h
28.06.2017 12:00 24,6 C 56 % 999,6 hPa 0,0 l/m 22,7 km/h W-SW 15,2 C 21,8 C 12,6 km/h
28.06.2017 13:00 25,2 C 57 % 998,7 hPa 0,0 l/m 3,9 km/h N 16,1 C 25,2 C 2,2 km/h
28.06.2017 14:00 29,6 C 45 % 997,7 hPa 0,0 l/m 0,0 km/h SW 16,4 C 29,6 C 0,0 km/h
28.06.2017 15:00 26,8 C 48 % 996,6 hPa 0,0 l/m 5,2 km/h S-SO 14,9 C 26,8 C 2,9 km/h
28.06.2017 16:00 30,1 C 41 % 995,9 hPa 0,0 l/m 0,0 km/h S-SO 15,4 C 30,1 C 0,0 km/h
28.06.2017 17:00 25,0 C 51 % 995,6 hPa 0,0 l/m 0,0 km/h S 14,1 C 25,0 C 0,0 km/h
28.06.2017 18:00 23,0 C 59 % 995,2 hPa 0,0 l/m 0,0 km/h NW 14,5 C 23,0 C 0,0 km/h
28.06.2017 19:00 22,1 C 65 % 995,5 hPa 0,0 l/m 0,0 km/h SW 15,2 C 22,1 C 0,0 km/h
28.06.2017 20:00 19,2 C 71 % 996,6 hPa 0,0 l/m 9,1 km/h W-SW 13,8 C 18,1 C 5,0 km/h
28.06.2017 21:00 17,8 C 76 % 997,0 hPa 0,0 l/m 0,0 km/h S 13,5 C 17,8 C 0,0 km/h
28.06.2017 22:00 17,0 C 79 % 996,8 hPa 0,0 l/m 9,1 km/h S-SW 13,3 C 15,7 C 5,0 km/h
28.06.2017 23:00 16,8 C 79 % 996,7 hPa 0,0 l/m 5,8 km/h S-SO 13,1 C 16,8 C 3,2 km/h
29.06.2017 00:00 17,1 C 76 % 996,8 hPa 0,0 l/m 4,5 km/h S-SO 12,8 C 17,1 C 2,5 km/h
29.06.2017 01:00 17,3 C 78 % 996,8 hPa 0,0 l/m 14,9 km/h S 13,4 C 14,0 C 8,3 km/h
29.06.2017 02:00 15,9 C 82 % 996,9 hPa 0,0 l/m 2,6 km/h S 12,8 C 15,9 C 1,4 km/h
29.06.2017 03:00 15,9 C 82 % 996,8 hPa 0,0 l/m 4,5 km/h S-SW 12,8 C 15,9 C 2,5 km/h
29.06.2017 04:00 15,9 C 81 % 997,2 hPa 0,0 l/m 19,4 km/h SW 12,6 C 11,1 C 10,8 km/h
29.06.2017 05:00 15,5 C 82 % 997,4 hPa 0,0 l/m 11,0 km/h SW 12,4 C 13,2 C 6,1 km/h
29.06.2017 06:00 16,1 C 79 % 997,7 hPa 0,0 l/m 21,4 km/h S 12,5 C 10,8 C 11,9 km/h
29.06.2017 07:00 16,9 C 76 % 998,0 hPa 0,0 l/m 0,0 km/h W 12,6 C 16,9 C 0,0 km/h
29.06.2017 08:00 20,7 C 66 % 998,2 hPa 0,0 l/m 0,0 km/h W 14,1 C 20,7 C 0,0 km/h
29.06.2017 09:00 24,1 C 53 % 998,3 hPa 0,0 l/m 16,2 km/h W-SW 13,9 C 22,0 C 9,0 km/h
29.06.2017 10:00 25,1 C 50 % 998,2 hPa 0,0 l/m 0,0 km/h W 13,9 C 25,1 C 0,0 km/h
29.06.2017 11:00 23,3 C 49 % 998,1 hPa 0,0 l/m 15,6 km/h SO 12,0 C 21,1 C 8,6 km/h
29.06.2017 12:00 14,4 C 78 % 999,3 hPa 1,0 l/m 0,0 km/h S-SW 10,6 C 14,4 C 0,0 km/h
29.06.2017 13:00 23,3 C 65 % 998,9 hPa 0,5 l/m 0,0 km/h S 16,3 C 23,3 C 0,0 km/h
29.06.2017 14:00 16,1 C 79 % 999,5 hPa 0,5 l/m 7,1 km/h S 12,5 C 15,7 C 4,0 km/h
29.06.2017 15:00 17,5 C 80 % 1000,5 hPa 0,5 l/m 17,5 km/h S 14,0 C 13,6 C 9,7 km/h
29.06.2017 16:00 19,1 C 73 % 1000,6 hPa 0,0 l/m 13,6 km/h S-SW 14,1 C 16,5 C 7,6 km/h
29.06.2017 17:00 23,9 C 55 % 1000,7 hPa 0,0 l/m 20,7 km/h S 14,3 C 21,2 C 11,5 km/h
29.06.2017 18:00 21,3 C 56 % 1000,9 hPa 0,0 l/m 13,6 km/h SW 12,2 C 19,1 C 7,6 km/h
29.06.2017 19:00 18,2 C 66 % 1001,8 hPa 0,0 l/m 19,4 km/h S 11,7 C 14,0 C 10,8 km/h
29.06.2017 20:00 14,1 C 80 % 1002,5 hPa 1,0 l/m 7,1 km/h O-NO 10,7 C 13,7 C 4,0 km/h
29.06.2017 21:00 13,8 C 80 % 1003,0 hPa 0,0 l/m 0,0 km/h S-SO 10,4 C 13,8 C 0,0 km/h
29.06.2017 22:00 14,4 C 80 % 1003,7 hPa 0,0 l/m 0,0 km/h S-SW 11,0 C 14,4 C 0,0 km/h
29.06.2017 23:00 14,7 C 79 % 1003,9 hPa 0,0 l/m 0,0 km/h S 11,1 C 14,7 C 0,0 km/h
30.06.2017 00:00 13,4 C 82 % 1004,2 hPa 0,0 l/m 0,0 km/h S 10,4 C 13,4 C 0,0 km/h
30.06.2017 01:00 12,4 C 83 % 1004,2 hPa 0,0 l/m 0,0 km/h S-SW 9,6 C 12,4 C 0,0 km/h
30.06.2017 02:00 13,8 C 82 % 1004,2 hPa 0,0 l/m 10,4 km/h W-SW 10,8 C 11,6 C 5,8 km/h
30.06.2017 03:00 14,6 C 78 % 1004,6 hPa 0,0 l/m 4,5 km/h S-SW 10,8 C 14,6 C 2,5 km/h
30.06.2017 04:00 14,6 C 77 % 1004,7 hPa 0,0 l/m 24,0 km/h SO 10,6 C 8,3 C 13,3 km/h
30.06.2017 05:00 13,9 C 76 % 1005,0 hPa 0,0 l/m 6,5 km/h S 9,7 C 13,9 C 3,6 km/h
30.06.2017 06:00 14,3 C 75 % 1005,5 hPa 0,0 l/m 0,0 km/h S 9,9 C 14,3 C 0,0 km/h
30.06.2017 07:00 17,2 C 71 % 1005,7 hPa 0,0 l/m 0,0 km/h SW 11,9 C 17,2 C 0,0 km/h
30.06.2017 08:00 19,5 C 62 % 1006,2 hPa 0,0 l/m 9,1 km/h W-SW 12,0 C 18,4 C 5,0 km/h
30.06.2017 09:00 21,2 C 51 % 1006,4 hPa 0,0 l/m 18,8 km/h S-SW 10,7 C 18,0 C 10,4 km/h
30.06.2017 10:00 22,9 C 49 % 1006,3 hPa 0,0 l/m 14,9 km/h S-SO 11,6 C 20,8 C 8,3 km/h
30.06.2017 11:00 23,0 C 47 % 1006,0 hPa 0,0 l/m 0,0 km/h SW 11,1 C 23,0 C 0,0 km/h
30.06.2017 12:00 23,6 C 46 % 1005,7 hPa 0,0 l/m 23,3 km/h W-SW 11,3 C 20,4 C 13,0 km/h
30.06.2017 13:00 25,4 C 42 % 1005,3 hPa 0,0 l/m 9,7 km/h SW 11,5 C 24,7 C 5,4 km/h
30.06.2017 14:00 26,7 C 38 % 1004,7 hPa 0,0 l/m 22,7 km/h W-SW 11,2 C 24,6 C 12,6 km/h
30.06.2017 15:00 26,9 C 37 % 1004,5 hPa 0,0 l/m 11,0 km/h SW 11,0 C 26,1 C 6,1 km/h
30.06.2017 16:00 23,8 C 46 % 1004,8 hPa 0,0 l/m 2,6 km/h W-SW 11,5 C 23,8 C 1,4 km/h
30.06.2017 17:00 23,1 C 48 % 1005,3 hPa 0,0 l/m 17,5 km/h W-SW 11,5 C 20,6 C 9,7 km/h
30.06.2017 18:00 25,4 C 39 % 1005,7 hPa 0,0 l/m 24,0 km/h SW 10,4 C 22,8 C 13,3 km/h
30.06.2017 19:00 20,2 C 52 % 1006,0 hPa 0,0 l/m 8,4 km/h S-SW 10,0 C 19,4 C 4,7 km/h
30.06.2017 20:00 18,9 C 56 % 1006,6 hPa 0,0 l/m 5,8 km/h S 9,9 C 18,9 C 3,2 km/h
30.06.2017 21:00 17,8 C 58 % 1007,2 hPa 0,0 l/m 3,9 km/h S 9,4 C 17,8 C 2,2 km/h
30.06.2017 22:00 17,6 C 61 % 1007,6 hPa 0,0 l/m 5,2 km/h SW 10,0 C 17,6 C 2,9 km/h
30.06.2017 23:00 17,3 C 63 % 1007,6 hPa 0,0 l/m 11,0 km/h SW 10,2 C 15,3 C 6,1 km/h
02.07.2017 17:00 18,9 C 74 % 992,5 hPa 4,1 l/m 0,0 km/h NW 14,2 C 18,9 C 0,0 km/h
02.07.2017 18:00 19,8 C 73 % 992,5 hPa 0,0 l/m 0,0 km/h W 14,8 C 19,8 C 0,0 km/h
02.07.2017 19:00 18,4 C 75 % 992,7 hPa 0,0 l/m 0,0 km/h W 13,9 C 18,4 C 0,0 km/h
02.07.2017 20:00 16,0 C 82 % 993,1 hPa 0,0 l/m 0,0 km/h N 12,9 C 16,0 C 0,0 km/h
02.07.2017 21:00 15,4 C 83 % 993,6 hPa 0,0 l/m 5,8 km/h N-NO 12,5 C 15,4 C 3,2 km/h
02.07.2017 22:00 15,1 C 82 % 993,9 hPa 0,0 l/m 0,0 km/h N-NO 12,0 C 15,1 C 0,0 km/h
02.07.2017 23:00 15,0 C 82 % 994,0 hPa 0,5 l/m 0,0 km/h N-NO 12,0 C 15,0 C 0,0 km/h
Min-Datum _ 30.06.17 26.06.17 02.07.17 - 26.06.17 - 30.06.17 30.06.17 26.06.17
_ Min-Zeit 01:55 16:55 17:55 - 00:55 - 21:55 04:55 00:55
Minimum _ 12,4 C 30 % 992,5 hPa - 0,0 km/h - 9,4 C 8,3 C 0,0 km/h
Max-Datum _ 26.06.17 26.06.17 26.06.17 02.07.17 30.06.17 - 27.06.17 26.06.17 30.06.17
_ Max-Zeit 17:55 05:55 00:55 17:55 04:55 - 09:55 17:55 04:55
Maximum _ 36,4 C 83 % 1013,5 hPa 4,1 l/m 24,0 km/h
SO
- 20,7 C 36,4 C 13,3 km/h
SO
Durchschnitt _ 21,2 C 65 % 1003,1 hPa #13,9 l/m 4,6 km/h S-SW 13,8 C 20,6 C 2,6 km/h
www.sexauwetter.de